sensor_id;sensor_type;location;lat;lon;timestamp;P1;durP1;ratioP1;P2;durP2;ratioP2
14294;SDS011;7231;59.370;18.016;2023-02-21T00:01:28;2.00;;;0.57;;
14294;SDS011;7231;59.370;18.016;2023-02-21T00:04:14;1.63;;;0.70;;
14294;SDS011;7231;59.370;18.016;2023-02-21T00:06:59;1.20;;;0.70;;
14294;SDS011;7231;59.370;18.016;2023-02-21T00:09:44;2.10;;;0.90;;
14294;SDS011;7231;59.370;18.016;2023-02-21T00:12:30;1.63;;;1.00;;
14294;SDS011;7231;59.370;18.016;2023-02-21T00:15:16;1.57;;;1.10;;
14294;SDS011;7231;59.370;18.016;2023-02-21T00:18:02;1.20;;;0.70;;
14294;SDS011;7231;59.370;18.016;2023-02-21T00:20:47;1.00;;;0.70;;
14294;SDS011;7231;59.370;18.016;2023-02-21T00:23:32;1.87;;;0.53;;
14294;SDS011;7231;59.370;18.016;2023-02-21T00:26:19;1.97;;;1.10;;
14294;SDS011;7231;59.370;18.016;2023-02-21T00:29:04;1.80;;;0.73;;
14294;SDS011;7231;59.370;18.016;2023-02-21T00:31:52;2.33;;;1.00;;
14294;SDS011;7231;59.370;18.016;2023-02-21T00:34:38;1.77;;;0.90;;
14294;SDS011;7231;59.370;18.016;2023-02-21T00:37:23;2.50;;;0.90;;
14294;SDS011;7231;59.370;18.016;2023-02-21T00:40:10;1.97;;;0.80;;
14294;SDS011;7231;59.370;18.016;2023-02-21T00:42:56;1.33;;;0.87;;
14294;SDS011;7231;59.370;18.016;2023-02-21T00:45:42;3.60;;;0.80;;
14294;SDS011;7231;59.370;18.016;2023-02-21T00:48:29;1.60;;;1.00;;
14294;SDS011;7231;59.370;18.016;2023-02-21T00:51:15;3.17;;;0.90;;
14294;SDS011;7231;59.370;18.016;2023-02-21T00:54:01;1.60;;;0.87;;
14294;SDS011;7231;59.370;18.016;2023-02-21T00:56:47;3.00;;;1.07;;
14294;SDS011;7231;59.370;18.016;2023-02-21T00:59:32;3.13;;;1.20;;
14294;SDS011;7231;59.370;18.016;2023-02-21T01:02:18;2.00;;;1.17;;
14294;SDS011;7231;59.370;18.016;2023-02-21T01:05:05;3.07;;;1.30;;
14294;SDS011;7231;59.370;18.016;2023-02-21T01:07:51;1.83;;;1.40;;
14294;SDS011;7231;59.370;18.016;2023-02-21T01:10:37;1.80;;;1.40;;
14294;SDS011;7231;59.370;18.016;2023-02-21T01:13:22;2.37;;;1.33;;
14294;SDS011;7231;59.370;18.016;2023-02-21T01:16:08;3.37;;;1.30;;
14294;SDS011;7231;59.370;18.016;2023-02-21T01:18:53;2.13;;;1.50;;
14294;SDS011;7231;59.370;18.016;2023-02-21T01:21:40;2.77;;;1.47;;
14294;SDS011;7231;59.370;18.016;2023-02-21T01:24:26;4.53;;;1.63;;
14294;SDS011;7231;59.370;18.016;2023-02-21T01:27:11;2.63;;;1.60;;
14294;SDS011;7231;59.370;18.016;2023-02-21T01:29:57;3.53;;;1.43;;
14294;SDS011;7231;59.370;18.016;2023-02-21T01:32:42;2.67;;;1.37;;
14294;SDS011;7231;59.370;18.016;2023-02-21T01:35:28;3.10;;;1.87;;
14294;SDS011;7231;59.370;18.016;2023-02-21T01:38:15;2.37;;;1.70;;
14294;SDS011;7231;59.370;18.016;2023-02-21T01:41:00;2.50;;;1.70;;
14294;SDS011;7231;59.370;18.016;2023-02-21T01:43:58;2.83;;;2.00;;
14294;SDS011;7231;59.370;18.016;2023-02-21T01:46:45;2.43;;;1.77;;
14294;SDS011;7231;59.370;18.016;2023-02-21T01:49:31;2.50;;;1.57;;
14294;SDS011;7231;59.370;18.016;2023-02-21T01:52:18;2.97;;;1.90;;
14294;SDS011;7231;59.370;18.016;2023-02-21T01:55:06;2.87;;;1.80;;
14294;SDS011;7231;59.370;18.016;2023-02-21T01:57:51;2.10;;;1.60;;
14294;SDS011;7231;59.370;18.016;2023-02-21T02:00:38;3.93;;;2.10;;
14294;SDS011;7231;59.370;18.016;2023-02-21T02:03:24;3.03;;;1.77;;
14294;SDS011;7231;59.370;18.016;2023-02-21T02:06:12;4.77;;;2.30;;
14294;SDS011;7231;59.370;18.016;2023-02-21T02:09:05;4.43;;;2.30;;
14294;SDS011;7231;59.370;18.016;2023-02-21T02:12:05;4.40;;;2.17;;
14294;SDS011;7231;59.370;18.016;2023-02-21T02:17:50;3.27;;;2.20;;
14294;SDS011;7231;59.370;18.016;2023-02-21T02:23:34;3.23;;;2.20;;
14294;SDS011;7231;59.370;18.016;2023-02-21T02:26:23;3.00;;;1.70;;
14294;SDS011;7231;59.370;18.016;2023-02-21T02:29:22;3.60;;;2.43;;
14294;SDS011;7231;59.370;18.016;2023-02-21T02:32:11;3.20;;;2.30;;
14294;SDS011;7231;59.370;18.016;2023-02-21T02:34:59;3.57;;;2.40;;
14294;SDS011;7231;59.370;18.016;2023-02-21T02:37:32;3.50;;;2.43;;
14294;SDS011;7231;59.370;18.016;2023-02-21T02:40:09;3.57;;;2.47;;
14294;SDS011;7231;59.370;18.016;2023-02-21T02:42:48;6.67;;;2.80;;
14294;SDS011;7231;59.370;18.016;2023-02-21T02:45:27;5.90;;;3.10;;
14294;SDS011;7231;59.370;18.016;2023-02-21T02:48:00;3.83;;;2.53;;
14294;SDS011;7231;59.370;18.016;2023-02-21T02:50:34;4.93;;;2.77;;
14294;SDS011;7231;59.370;18.016;2023-02-21T02:53:03;4.70;;;2.73;;
14294;SDS011;7231;59.370;18.016;2023-02-21T02:55:33;3.90;;;2.63;;
14294;SDS011;7231;59.370;18.016;2023-02-21T02:58:08;3.90;;;2.90;;
14294;SDS011;7231;59.370;18.016;2023-02-21T03:00:39;6.30;;;3.10;;
14294;SDS011;7231;59.370;18.016;2023-02-21T03:03:15;3.83;;;2.70;;
14294;SDS011;7231;59.370;18.016;2023-02-21T03:06:12;3.73;;;2.70;;
14294;SDS011;7231;59.370;18.016;2023-02-21T03:08:50;4.30;;;2.80;;
14294;SDS011;7231;59.370;18.016;2023-02-21T03:11:24;4.47;;;2.77;;
14294;SDS011;7231;59.370;18.016;2023-02-21T03:13:54;4.20;;;2.90;;
14294;SDS011;7231;59.370;18.016;2023-02-21T03:16:27;4.70;;;3.00;;
14294;SDS011;7231;59.370;18.016;2023-02-21T03:19:01;5.07;;;3.50;;
14294;SDS011;7231;59.370;18.016;2023-02-21T03:21:35;7.87;;;3.33;;
14294;SDS011;7231;59.370;18.016;2023-02-21T03:24:07;5.47;;;3.50;;
14294;SDS011;7231;59.370;18.016;2023-02-21T03:26:39;6.57;;;3.57;;
14294;SDS011;7231;59.370;18.016;2023-02-21T03:29:09;5.63;;;3.40;;
14294;SDS011;7231;59.370;18.016;2023-02-21T03:31:39;7.23;;;3.77;;
14294;SDS011;7231;59.370;18.016;2023-02-21T03:34:11;4.70;;;3.17;;
14294;SDS011;7231;59.370;18.016;2023-02-21T03:36:40;7.07;;;4.17;;
14294;SDS011;7231;59.370;18.016;2023-02-21T03:39:09;6.73;;;3.63;;
14294;SDS011;7231;59.370;18.016;2023-02-21T03:41:37;5.50;;;3.53;;
14294;SDS011;7231;59.370;18.016;2023-02-21T03:44:05;5.30;;;3.80;;
14294;SDS011;7231;59.370;18.016;2023-02-21T03:46:33;5.33;;;4.03;;
14294;SDS011;7231;59.370;18.016;2023-02-21T03:49:01;8.33;;;4.67;;
14294;SDS011;7231;59.370;18.016;2023-02-21T03:51:29;6.57;;;4.17;;
14294;SDS011;7231;59.370;18.016;2023-02-21T03:53:58;5.50;;;3.63;;
14294;SDS011;7231;59.370;18.016;2023-02-21T03:56:26;5.13;;;3.23;;
14294;SDS011;7231;59.370;18.016;2023-02-21T03:59:07;6.07;;;3.63;;
14294;SDS011;7231;59.370;18.016;2023-02-21T04:01:35;4.53;;;3.37;;
14294;SDS011;7231;59.370;18.016;2023-02-21T04:04:03;7.70;;;3.70;;
14294;SDS011;7231;59.370;18.016;2023-02-21T04:06:31;5.37;;;3.27;;
14294;SDS011;7231;59.370;18.016;2023-02-21T04:09:00;4.50;;;3.10;;
14294;SDS011;7231;59.370;18.016;2023-02-21T04:11:29;4.87;;;3.47;;
14294;SDS011;7231;59.370;18.016;2023-02-21T04:13:57;4.93;;;3.23;;
14294;SDS011;7231;59.370;18.016;2023-02-21T04:16:25;4.27;;;3.50;;
14294;SDS011;7231;59.370;18.016;2023-02-21T04:18:53;4.53;;;3.33;;
14294;SDS011;7231;59.370;18.016;2023-02-21T04:21:22;4.23;;;3.10;;
14294;SDS011;7231;59.370;18.016;2023-02-21T04:23:50;4.07;;;3.13;;
14294;SDS011;7231;59.370;18.016;2023-02-21T04:26:19;4.83;;;3.27;;
14294;SDS011;7231;59.370;18.016;2023-02-21T04:28:49;4.10;;;3.27;;
14294;SDS011;7231;59.370;18.016;2023-02-21T04:31:17;4.57;;;3.57;;
14294;SDS011;7231;59.370;18.016;2023-02-21T04:33:45;4.77;;;3.00;;
14294;SDS011;7231;59.370;18.016;2023-02-21T04:36:13;3.47;;;2.80;;
14294;SDS011;7231;59.370;18.016;2023-02-21T04:38:41;4.67;;;3.20;;
14294;SDS011;7231;59.370;18.016;2023-02-21T04:41:09;3.60;;;2.80;;
14294;SDS011;7231;59.370;18.016;2023-02-21T04:43:41;4.47;;;2.83;;
14294;SDS011;7231;59.370;18.016;2023-02-21T04:46:10;4.47;;;2.93;;
14294;SDS011;7231;59.370;18.016;2023-02-21T04:48:41;4.33;;;2.60;;
14294;SDS011;7231;59.370;18.016;2023-02-21T04:51:11;3.83;;;2.43;;
14294;SDS011;7231;59.370;18.016;2023-02-21T04:53:41;3.00;;;2.37;;
14294;SDS011;7231;59.370;18.016;2023-02-21T04:56:09;3.23;;;2.37;;
14294;SDS011;7231;59.370;18.016;2023-02-21T04:58:38;4.03;;;2.83;;
14294;SDS011;7231;59.370;18.016;2023-02-21T05:01:12;4.27;;;2.40;;
14294;SDS011;7231;59.370;18.016;2023-02-21T05:03:42;3.37;;;2.40;;
14294;SDS011;7231;59.370;18.016;2023-02-21T05:06:15;3.27;;;2.37;;
14294;SDS011;7231;59.370;18.016;2023-02-21T05:08:43;2.80;;;2.27;;
14294;SDS011;7231;59.370;18.016;2023-02-21T05:11:11;2.63;;;2.13;;
14294;SDS011;7231;59.370;18.016;2023-02-21T05:13:40;2.33;;;1.93;;
14294;SDS011;7231;59.370;18.016;2023-02-21T05:16:09;3.23;;;2.33;;
14294;SDS011;7231;59.370;18.016;2023-02-21T05:18:39;2.40;;;2.20;;
14294;SDS011;7231;59.370;18.016;2023-02-21T05:21:08;3.10;;;1.80;;
14294;SDS011;7231;59.370;18.016;2023-02-21T05:23:36;3.37;;;1.90;;
14294;SDS011;7231;59.370;18.016;2023-02-21T05:26:07;2.90;;;2.10;;
14294;SDS011;7231;59.370;18.016;2023-02-21T05:28:36;2.23;;;2.00;;
14294;SDS011;7231;59.370;18.016;2023-02-21T05:31:06;4.17;;;2.00;;
14294;SDS011;7231;59.370;18.016;2023-02-21T05:33:34;3.23;;;1.93;;
14294;SDS011;7231;59.370;18.016;2023-02-21T05:36:04;3.50;;;2.43;;
14294;SDS011;7231;59.370;18.016;2023-02-21T05:38:32;3.70;;;2.30;;
14294;SDS011;7231;59.370;18.016;2023-02-21T05:41:10;2.47;;;2.17;;
14294;SDS011;7231;59.370;18.016;2023-02-21T05:43:38;4.20;;;2.50;;
14294;SDS011;7231;59.370;18.016;2023-02-21T05:46:06;2.20;;;1.80;;
14294;SDS011;7231;59.370;18.016;2023-02-21T05:48:34;2.33;;;1.90;;
14294;SDS011;7231;59.370;18.016;2023-02-21T05:51:03;2.67;;;1.90;;
14294;SDS011;7231;59.370;18.016;2023-02-21T05:53:31;2.80;;;2.10;;
14294;SDS011;7231;59.370;18.016;2023-02-21T05:55:59;4.00;;;2.20;;
14294;SDS011;7231;59.370;18.016;2023-02-21T05:58:28;3.07;;;2.30;;
14294;SDS011;7231;59.370;18.016;2023-02-21T06:00:55;3.80;;;2.03;;
14294;SDS011;7231;59.370;18.016;2023-02-21T06:03:23;3.50;;;2.37;;
14294;SDS011;7231;59.370;18.016;2023-02-21T06:05:51;3.70;;;2.20;;
14294;SDS011;7231;59.370;18.016;2023-02-21T06:08:21;3.23;;;2.10;;
14294;SDS011;7231;59.370;18.016;2023-02-21T06:10:49;5.13;;;2.63;;
14294;SDS011;7231;59.370;18.016;2023-02-21T06:13:17;3.60;;;2.27;;
14294;SDS011;7231;59.370;18.016;2023-02-21T06:15:45;4.30;;;2.40;;
14294;SDS011;7231;59.370;18.016;2023-02-21T06:18:13;4.57;;;2.73;;
14294;SDS011;7231;59.370;18.016;2023-02-21T06:20:42;3.03;;;1.90;;
14294;SDS011;7231;59.370;18.016;2023-02-21T06:23:10;2.90;;;2.13;;
14294;SDS011;7231;59.370;18.016;2023-02-21T06:25:39;2.93;;;2.20;;
14294;SDS011;7231;59.370;18.016;2023-02-21T06:28:07;3.07;;;2.40;;
14294;SDS011;7231;59.370;18.016;2023-02-21T06:30:36;3.97;;;2.60;;
14294;SDS011;7231;59.370;18.016;2023-02-21T06:33:04;3.47;;;2.20;;
14294;SDS011;7231;59.370;18.016;2023-02-21T06:35:32;3.53;;;2.40;;
14294;SDS011;7231;59.370;18.016;2023-02-21T06:38:00;3.27;;;2.27;;
14294;SDS011;7231;59.370;18.016;2023-02-21T06:40:28;6.57;;;3.13;;
14294;SDS011;7231;59.370;18.016;2023-02-21T06:42:57;3.53;;;2.43;;
14294;SDS011;7231;59.370;18.016;2023-02-21T06:45:28;4.80;;;2.50;;
14294;SDS011;7231;59.370;18.016;2023-02-21T06:48:03;3.23;;;2.10;;
14294;SDS011;7231;59.370;18.016;2023-02-21T06:50:31;5.07;;;2.10;;
14294;SDS011;7231;59.370;18.016;2023-02-21T06:52:59;4.20;;;2.57;;
14294;SDS011;7231;59.370;18.016;2023-02-21T06:55:27;3.43;;;2.47;;
14294;SDS011;7231;59.370;18.016;2023-02-21T06:57:57;3.43;;;2.57;;
14294;SDS011;7231;59.370;18.016;2023-02-21T07:00:24;4.10;;;2.60;;
14294;SDS011;7231;59.370;18.016;2023-02-21T07:02:53;3.33;;;2.37;;
14294;SDS011;7231;59.370;18.016;2023-02-21T07:05:21;3.67;;;2.70;;
14294;SDS011;7231;59.370;18.016;2023-02-21T07:07:49;5.43;;;2.53;;
14294;SDS011;7231;59.370;18.016;2023-02-21T07:10:17;5.03;;;3.13;;
14294;SDS011;7231;59.370;18.016;2023-02-21T07:12:45;5.50;;;2.70;;
14294;SDS011;7231;59.370;18.016;2023-02-21T07:15:14;4.63;;;3.20;;
14294;SDS011;7231;59.370;18.016;2023-02-21T07:17:42;5.57;;;3.10;;
14294;SDS011;7231;59.370;18.016;2023-02-21T07:20:10;4.20;;;2.93;;
14294;SDS011;7231;59.370;18.016;2023-02-21T07:22:38;7.93;;;3.30;;
14294;SDS011;7231;59.370;18.016;2023-02-21T07:25:06;10.03;;;3.60;;
14294;SDS011;7231;59.370;18.016;2023-02-21T07:27:34;8.77;;;3.70;;
14294;SDS011;7231;59.370;18.016;2023-02-21T07:30:02;6.03;;;3.77;;
14294;SDS011;7231;59.370;18.016;2023-02-21T07:32:34;7.63;;;4.40;;
14294;SDS011;7231;59.370;18.016;2023-02-21T07:35:02;8.63;;;4.40;;
14294;SDS011;7231;59.370;18.016;2023-02-21T07:37:31;6.90;;;4.00;;
14294;SDS011;7231;59.370;18.016;2023-02-21T07:39:59;8.87;;;4.50;;
14294;SDS011;7231;59.370;18.016;2023-02-21T07:42:27;9.80;;;5.10;;
14294;SDS011;7231;59.370;18.016;2023-02-21T07:44:55;8.63;;;4.57;;
14294;SDS011;7231;59.370;18.016;2023-02-21T07:47:24;9.10;;;4.57;;
14294;SDS011;7231;59.370;18.016;2023-02-21T07:49:54;10.20;;;5.03;;
14294;SDS011;7231;59.370;18.016;2023-02-21T07:52:22;9.07;;;4.70;;
14294;SDS011;7231;59.370;18.016;2023-02-21T07:54:50;10.23;;;4.37;;
14294;SDS011;7231;59.370;18.016;2023-02-21T07:57:18;10.50;;;4.37;;
14294;SDS011;7231;59.370;18.016;2023-02-21T07:59:46;6.37;;;4.50;;
14294;SDS011;7231;59.370;18.016;2023-02-21T08:02:15;5.47;;;4.07;;
14294;SDS011;7231;59.370;18.016;2023-02-21T08:04:43;8.30;;;3.80;;
14294;SDS011;7231;59.370;18.016;2023-02-21T08:07:13;8.07;;;4.17;;
14294;SDS011;7231;59.370;18.016;2023-02-21T08:09:41;5.53;;;3.97;;
14294;SDS011;7231;59.370;18.016;2023-02-21T08:12:08;7.30;;;4.40;;
14294;SDS011;7231;59.370;18.016;2023-02-21T08:14:36;10.77;;;4.13;;
14294;SDS011;7231;59.370;18.016;2023-02-21T08:17:04;8.63;;;4.10;;
14294;SDS011;7231;59.370;18.016;2023-02-21T08:19:32;6.00;;;3.43;;
14294;SDS011;7231;59.370;18.016;2023-02-21T08:22:00;5.97;;;3.90;;
14294;SDS011;7231;59.370;18.016;2023-02-21T08:24:29;11.03;;;4.50;;
14294;SDS011;7231;59.370;18.016;2023-02-21T08:26:57;7.93;;;4.20;;
14294;SDS011;7231;59.370;18.016;2023-02-21T08:29:25;6.20;;;4.33;;
14294;SDS011;7231;59.370;18.016;2023-02-21T08:31:54;7.60;;;4.70;;
14294;SDS011;7231;59.370;18.016;2023-02-21T08:34:22;11.57;;;4.77;;
14294;SDS011;7231;59.370;18.016;2023-02-21T08:36:50;8.80;;;4.00;;
14294;SDS011;7231;59.370;18.016;2023-02-21T08:39:18;7.57;;;4.30;;
14294;SDS011;7231;59.370;18.016;2023-02-21T08:41:47;9.77;;;4.97;;
14294;SDS011;7231;59.370;18.016;2023-02-21T08:44:16;8.43;;;5.20;;
14294;SDS011;7231;59.370;18.016;2023-02-21T08:46:46;6.27;;;4.10;;
14294;SDS011;7231;59.370;18.016;2023-02-21T08:49:15;10.27;;;4.33;;
14294;SDS011;7231;59.370;18.016;2023-02-21T08:51:43;6.80;;;4.27;;
14294;SDS011;7231;59.370;18.016;2023-02-21T08:54:11;5.20;;;4.00;;
14294;SDS011;7231;59.370;18.016;2023-02-21T08:56:39;6.57;;;3.97;;
14294;SDS011;7231;59.370;18.016;2023-02-21T08:59:08;5.80;;;3.60;;
14294;SDS011;7231;59.370;18.016;2023-02-21T09:01:36;5.27;;;3.50;;
14294;SDS011;7231;59.370;18.016;2023-02-21T09:04:04;5.90;;;3.30;;
14294;SDS011;7231;59.370;18.016;2023-02-21T09:06:32;7.17;;;3.53;;
14294;SDS011;7231;59.370;18.016;2023-02-21T09:09:00;4.97;;;3.00;;
14294;SDS011;7231;59.370;18.016;2023-02-21T09:11:28;5.20;;;3.00;;
14294;SDS011;7231;59.370;18.016;2023-02-21T09:13:56;7.17;;;3.17;;
14294;SDS011;7231;59.370;18.016;2023-02-21T09:16:25;4.47;;;2.70;;
14294;SDS011;7231;59.370;18.016;2023-02-21T09:18:54;5.07;;;3.27;;
14294;SDS011;7231;59.370;18.016;2023-02-21T09:21:24;6.77;;;2.93;;
14294;SDS011;7231;59.370;18.016;2023-02-21T09:23:53;4.40;;;2.80;;
14294;SDS011;7231;59.370;18.016;2023-02-21T09:26:22;3.83;;;2.83;;
14294;SDS011;7231;59.370;18.016;2023-02-21T09:28:50;4.93;;;2.70;;
14294;SDS011;7231;59.370;18.016;2023-02-21T09:31:19;5.03;;;2.93;;
14294;SDS011;7231;59.370;18.016;2023-02-21T09:33:49;6.13;;;3.60;;
14294;SDS011;7231;59.370;18.016;2023-02-21T09:36:17;4.50;;;3.10;;
14294;SDS011;7231;59.370;18.016;2023-02-21T09:38:49;3.70;;;3.00;;
14294;SDS011;7231;59.370;18.016;2023-02-21T09:41:17;4.50;;;2.47;;
14294;SDS011;7231;59.370;18.016;2023-02-21T09:43:47;4.13;;;2.90;;
14294;SDS011;7231;59.370;18.016;2023-02-21T09:46:18;8.03;;;3.40;;
14294;SDS011;7231;59.370;18.016;2023-02-21T09:49:00;3.83;;;3.43;;
14294;SDS011;7231;59.370;18.016;2023-02-21T09:51:29;4.70;;;3.57;;
14294;SDS011;7231;59.370;18.016;2023-02-21T09:53:58;4.87;;;2.93;;
14294;SDS011;7231;59.370;18.016;2023-02-21T09:56:30;3.90;;;2.93;;
14294;SDS011;7231;59.370;18.016;2023-02-21T09:59:02;5.87;;;3.20;;
14294;SDS011;7231;59.370;18.016;2023-02-21T10:01:34;5.63;;;3.60;;
14294;SDS011;7231;59.370;18.016;2023-02-21T10:04:14;4.77;;;2.60;;
14294;SDS011;7231;59.370;18.016;2023-02-21T10:06:49;3.53;;;2.90;;
14294;SDS011;7231;59.370;18.016;2023-02-21T10:09:24;5.67;;;3.20;;
14294;SDS011;7231;59.370;18.016;2023-02-21T10:12:00;7.23;;;3.47;;
14294;SDS011;7231;59.370;18.016;2023-02-21T10:14:37;5.70;;;2.80;;
14294;SDS011;7231;59.370;18.016;2023-02-21T10:17:14;4.00;;;2.87;;
14294;SDS011;7231;59.370;18.016;2023-02-21T10:19:49;3.77;;;2.60;;
14294;SDS011;7231;59.370;18.016;2023-02-21T10:22:22;4.00;;;2.70;;
14294;SDS011;7231;59.370;18.016;2023-02-21T10:24:53;4.17;;;2.87;;
14294;SDS011;7231;59.370;18.016;2023-02-21T10:27:22;4.00;;;3.00;;
14294;SDS011;7231;59.370;18.016;2023-02-21T10:29:53;5.70;;;2.77;;
14294;SDS011;7231;59.370;18.016;2023-02-21T10:32:24;5.73;;;3.70;;
14294;SDS011;7231;59.370;18.016;2023-02-21T10:34:53;5.63;;;3.50;;
14294;SDS011;7231;59.370;18.016;2023-02-21T10:37:32;4.63;;;2.90;;
14294;SDS011;7231;59.370;18.016;2023-02-21T10:40:12;5.03;;;3.17;;
14294;SDS011;7231;59.370;18.016;2023-02-21T10:42:54;5.13;;;3.73;;
14294;SDS011;7231;59.370;18.016;2023-02-21T10:45:29;5.60;;;3.73;;
14294;SDS011;7231;59.370;18.016;2023-02-21T10:48:03;3.87;;;3.30;;
14294;SDS011;7231;59.370;18.016;2023-02-21T10:50:41;4.80;;;3.50;;
14294;SDS011;7231;59.370;18.016;2023-02-21T10:53:27;3.50;;;2.60;;
14294;SDS011;7231;59.370;18.016;2023-02-21T10:58:53;3.93;;;3.00;;
14294;SDS011;7231;59.370;18.016;2023-02-21T11:01:30;3.70;;;2.73;;
14294;SDS011;7231;59.370;18.016;2023-02-21T11:04:01;3.50;;;2.90;;
14294;SDS011;7231;59.370;18.016;2023-02-21T11:06:34;4.30;;;3.07;;
14294;SDS011;7231;59.370;18.016;2023-02-21T11:09:23;3.50;;;2.97;;
14294;SDS011;7231;59.370;18.016;2023-02-21T11:12:03;4.93;;;3.20;;
14294;SDS011;7231;59.370;18.016;2023-02-21T11:14:33;3.63;;;3.20;;
14294;SDS011;7231;59.370;18.016;2023-02-21T11:19:49;6.03;;;3.80;;
14294;SDS011;7231;59.370;18.016;2023-02-21T11:22:21;4.60;;;3.20;;
14294;SDS011;7231;59.370;18.016;2023-02-21T11:24:54;4.43;;;3.43;;
14294;SDS011;7231;59.370;18.016;2023-02-21T11:27:27;4.23;;;3.17;;
14294;SDS011;7231;59.370;18.016;2023-02-21T11:29:58;4.23;;;3.17;;
14294;SDS011;7231;59.370;18.016;2023-02-21T11:32:30;4.90;;;3.00;;
14294;SDS011;7231;59.370;18.016;2023-02-21T11:35:06;3.53;;;2.83;;
14294;SDS011;7231;59.370;18.016;2023-02-21T11:37:50;4.37;;;3.10;;
14294;SDS011;7231;59.370;18.016;2023-02-21T11:40:21;3.97;;;2.97;;
14294;SDS011;7231;59.370;18.016;2023-02-21T11:42:50;3.60;;;3.00;;
14294;SDS011;7231;59.370;18.016;2023-02-21T11:45:36;4.27;;;2.80;;
14294;SDS011;7231;59.370;18.016;2023-02-21T11:48:10;3.40;;;2.53;;
14294;SDS011;7231;59.370;18.016;2023-02-21T11:50:43;4.07;;;2.93;;
14294;SDS011;7231;59.370;18.016;2023-02-21T11:53:18;3.30;;;2.87;;
14294;SDS011;7231;59.370;18.016;2023-02-21T11:55:52;3.07;;;2.60;;
14294;SDS011;7231;59.370;18.016;2023-02-21T11:58:26;4.70;;;3.40;;
14294;SDS011;7231;59.370;18.016;2023-02-21T12:01:02;3.97;;;3.20;;
14294;SDS011;7231;59.370;18.016;2023-02-21T12:03:46;4.63;;;3.10;;
14294;SDS011;7231;59.370;18.016;2023-02-21T12:06:27;5.30;;;3.33;;
14294;SDS011;7231;59.370;18.016;2023-02-21T12:09:06;4.03;;;3.00;;
14294;SDS011;7231;59.370;18.016;2023-02-21T12:11:43;5.33;;;3.07;;
14294;SDS011;7231;59.370;18.016;2023-02-21T12:14:22;3.70;;;2.47;;
14294;SDS011;7231;59.370;18.016;2023-02-21T12:17:09;3.03;;;2.47;;
14294;SDS011;7231;59.370;18.016;2023-02-21T12:19:48;3.70;;;2.90;;
14294;SDS011;7231;59.370;18.016;2023-02-21T12:22:33;3.77;;;3.20;;
14294;SDS011;7231;59.370;18.016;2023-02-21T12:25:30;3.63;;;2.97;;
14294;SDS011;7231;59.370;18.016;2023-02-21T12:28:07;3.40;;;2.67;;
14294;SDS011;7231;59.370;18.016;2023-02-21T12:31:03;3.27;;;2.63;;
14294;SDS011;7231;59.370;18.016;2023-02-21T12:33:43;4.87;;;2.90;;
14294;SDS011;7231;59.370;18.016;2023-02-21T12:36:23;4.50;;;3.20;;
14294;SDS011;7231;59.370;18.016;2023-02-21T12:39:14;3.57;;;3.00;;
14294;SDS011;7231;59.370;18.016;2023-02-21T12:42:04;3.33;;;2.70;;
14294;SDS011;7231;59.370;18.016;2023-02-21T12:44:50;3.93;;;2.50;;
14294;SDS011;7231;59.370;18.016;2023-02-21T12:47:30;4.60;;;2.90;;
14294;SDS011;7231;59.370;18.016;2023-02-21T12:50:03;4.13;;;3.13;;
14294;SDS011;7231;59.370;18.016;2023-02-21T12:52:42;3.60;;;3.10;;
14294;SDS011;7231;59.370;18.016;2023-02-21T12:55:17;4.10;;;3.20;;
14294;SDS011;7231;59.370;18.016;2023-02-21T12:57:50;4.20;;;3.20;;
14294;SDS011;7231;59.370;18.016;2023-02-21T13:00:23;4.03;;;3.30;;
14294;SDS011;7231;59.370;18.016;2023-02-21T13:02:57;5.47;;;3.77;;
14294;SDS011;7231;59.370;18.016;2023-02-21T13:05:32;5.07;;;3.07;;
14294;SDS011;7231;59.370;18.016;2023-02-21T13:08:08;4.40;;;3.20;;
14294;SDS011;7231;59.370;18.016;2023-02-21T13:10:49;4.20;;;2.90;;
14294;SDS011;7231;59.370;18.016;2023-02-21T13:13:25;3.43;;;2.77;;
14294;SDS011;7231;59.370;18.016;2023-02-21T13:15:57;3.80;;;2.87;;
14294;SDS011;7231;59.370;18.016;2023-02-21T13:18:29;4.97;;;2.83;;
14294;SDS011;7231;59.370;18.016;2023-02-21T13:21:02;4.30;;;2.83;;
14294;SDS011;7231;59.370;18.016;2023-02-21T13:23:40;3.77;;;2.80;;
14294;SDS011;7231;59.370;18.016;2023-02-21T13:26:24;5.40;;;2.90;;
14294;SDS011;7231;59.370;18.016;2023-02-21T13:29:12;4.67;;;3.10;;
14294;SDS011;7231;59.370;18.016;2023-02-21T13:31:45;3.33;;;2.73;;
14294;SDS011;7231;59.370;18.016;2023-02-21T13:34:17;3.50;;;2.93;;
14294;SDS011;7231;59.370;18.016;2023-02-21T13:36:49;4.73;;;3.20;;
14294;SDS011;7231;59.370;18.016;2023-02-21T13:39:17;3.80;;;3.10;;
14294;SDS011;7231;59.370;18.016;2023-02-21T13:41:48;3.77;;;3.37;;
14294;SDS011;7231;59.370;18.016;2023-02-21T13:44:23;3.90;;;2.93;;
14294;SDS011;7231;59.370;18.016;2023-02-21T13:49:46;3.37;;;2.80;;
14294;SDS011;7231;59.370;18.016;2023-02-21T13:52:26;4.53;;;3.17;;
14294;SDS011;7231;59.370;18.016;2023-02-21T13:55:09;3.87;;;2.93;;
14294;SDS011;7231;59.370;18.016;2023-02-21T14:03:55;3.97;;;3.20;;
14294;SDS011;7231;59.370;18.016;2023-02-21T14:06:28;4.07;;;3.07;;
14294;SDS011;7231;59.370;18.016;2023-02-21T14:09:01;3.87;;;3.20;;
14294;SDS011;7231;59.370;18.016;2023-02-21T14:11:36;2.97;;;2.67;;
14294;SDS011;7231;59.370;18.016;2023-02-21T14:14:17;4.30;;;3.27;;
14294;SDS011;7231;59.370;18.016;2023-02-21T14:16:50;5.97;;;3.20;;
14294;SDS011;7231;59.370;18.016;2023-02-21T14:19:26;3.93;;;3.00;;
14294;SDS011;7231;59.370;18.016;2023-02-21T14:22:02;4.33;;;3.27;;
14294;SDS011;7231;59.370;18.016;2023-02-21T14:24:36;3.87;;;2.87;;
14294;SDS011;7231;59.370;18.016;2023-02-21T14:32:52;5.07;;;3.10;;
14294;SDS011;7231;59.370;18.016;2023-02-21T14:35:27;3.43;;;2.87;;
14294;SDS011;7231;59.370;18.016;2023-02-21T14:38:00;4.10;;;3.47;;
14294;SDS011;7231;59.370;18.016;2023-02-21T14:40:35;4.53;;;2.90;;
14294;SDS011;7231;59.370;18.016;2023-02-21T14:43:20;4.70;;;3.20;;
14294;SDS011;7231;59.370;18.016;2023-02-21T14:46:01;3.33;;;2.60;;
14294;SDS011;7231;59.370;18.016;2023-02-21T14:48:56;5.47;;;3.13;;
14294;SDS011;7231;59.370;18.016;2023-02-21T14:51:51;4.23;;;3.20;;
14294;SDS011;7231;59.370;18.016;2023-02-21T14:58:11;5.33;;;3.73;;
14294;SDS011;7231;59.370;18.016;2023-02-21T15:01:05;6.40;;;3.90;;
14294;SDS011;7231;59.370;18.016;2023-02-21T15:03:40;5.33;;;3.83;;
14294;SDS011;7231;59.370;18.016;2023-02-21T15:06:13;4.07;;;3.40;;
14294;SDS011;7231;59.370;18.016;2023-02-21T15:08:48;4.57;;;3.33;;
14294;SDS011;7231;59.370;18.016;2023-02-21T15:11:21;4.67;;;3.67;;
14294;SDS011;7231;59.370;18.016;2023-02-21T15:14:11;4.63;;;3.83;;
14294;SDS011;7231;59.370;18.016;2023-02-21T15:16:49;5.17;;;3.73;;
14294;SDS011;7231;59.370;18.016;2023-02-21T15:19:23;6.13;;;4.03;;
14294;SDS011;7231;59.370;18.016;2023-02-21T15:27:53;5.07;;;3.93;;
14294;SDS011;7231;59.370;18.016;2023-02-21T15:30:24;5.43;;;3.93;;
14294;SDS011;7231;59.370;18.016;2023-02-21T15:32:58;6.07;;;4.53;;
14294;SDS011;7231;59.370;18.016;2023-02-21T15:35:32;5.37;;;4.33;;
14294;SDS011;7231;59.370;18.016;2023-02-21T15:38:05;6.57;;;4.50;;
14294;SDS011;7231;59.370;18.016;2023-02-21T15:40:39;5.37;;;4.10;;
14294;SDS011;7231;59.370;18.016;2023-02-21T15:43:25;6.73;;;4.70;;
14294;SDS011;7231;59.370;18.016;2023-02-21T15:45:58;6.73;;;4.40;;
14294;SDS011;7231;59.370;18.016;2023-02-21T15:48:28;5.83;;;4.07;;
14294;SDS011;7231;59.370;18.016;2023-02-21T15:50:59;6.73;;;3.77;;
14294;SDS011;7231;59.370;18.016;2023-02-21T15:53:30;4.73;;;3.97;;
14294;SDS011;7231;59.370;18.016;2023-02-21T16:01:39;5.33;;;4.13;;
14294;SDS011;7231;59.370;18.016;2023-02-21T16:04:14;6.43;;;4.43;;
14294;SDS011;7231;59.370;18.016;2023-02-21T16:06:45;7.67;;;4.87;;
14294;SDS011;7231;59.370;18.016;2023-02-21T16:09:23;8.80;;;4.80;;
14294;SDS011;7231;59.370;18.016;2023-02-21T16:11:54;6.97;;;4.67;;
14294;SDS011;7231;59.370;18.016;2023-02-21T16:14:30;6.60;;;4.50;;